Messwerte Eldoret

Temperatur

Temperatur
°C
1579680000 11.00 11.00 22
1579683600 12.00 12.00 23
1579687200 13.00 13.00 24
1579690800 14.00 14.00 24
1579694400 15.00 15.00 24
1579698000 16.00 16.00 23
1579701600 17.00 17.00 22
1579705200 18.00 18.00 19
1579708800 19.00 19.00 18
1579712400 20.00 20.00 17
1579716000 21.00 21.00 16
1579719600 22.00 22.00
1579723200 23.00 23.00
1579726800 0.00 0.00 16
1579730400 1.00 1.00 16
1579734000 2.00 2.00 16
1579737600 3.00 3.00 16
1579741200 4.00 4.00
1579744800 5.00 5.00
1579748400 6.00 6.00 13
1579752000 7.00 7.00 13
1579755600 8.00 8.00 13
1579759200 9.00 9.00 16
1579762800 10.00 10.00 19

Aktuellste Messwerte

Wettercharakter
Wetter: freundlich
Temperatur
19 °C
Feuchtigkeit
70 %
Wind
5 km/h, -
Luftdruck
1025 hPa
Messzeit: 23. Januar 2020, 10.00Datenquelle: METAR

Weitere Messstationen in der Nähe

Messstation Temperatur Entfernung
Kisumu - 91 km
Nairobi 20 °C 267 km
Nairobi 20 °C 275 km
Musoma 24 °C 279 km
Entebbe 24 °C 319 km
Mwanza 23 °C 424 km
Bukoba 24 °C 436 km

Wind

Windrichtung Böen Mittelwind
° km/h km/h
1579680000 11.00 10.00 - 11.00 350° 15
1579683600 12.00 11.00 - 12.00 10
1579687200 13.00 12.00 - 13.00 5
1579690800 14.00 13.00 - 14.00 30° 10
1579694400 15.00 14.00 - 15.00 50° 5
1579698000 16.00 15.00 - 16.00 5
1579701600 17.00 16.00 - 17.00 5
1579705200 18.00 17.00 - 18.00 270° 15
1579708800 19.00 18.00 - 19.00 270° 5
1579712400 20.00 19.00 - 20.00 340° 15
1579716000 21.00 20.00 - 21.00 170° 5
1579719600 22.00 21.00 - 22.00
1579723200 23.00 22.00 - 23.00
1579726800 0.00 23.00 - 0.00 150° 5
1579730400 1.00 0.00 - 1.00 150° 10
1579734000 2.00 1.00 - 2.00 140° 10
1579737600 3.00 2.00 - 3.00 130° 10
1579741200 4.00 3.00 - 4.00
1579744800 5.00 4.00 - 5.00
1579748400 6.00 5.00 - 6.00 160° 5
1579752000 7.00 6.00 - 7.00 210° 5
1579755600 8.00 7.00 - 8.00 170° 5
1579759200 9.00 8.00 - 9.00 5
1579762800 10.00 9.00 - 10.00 5

Ihre Wetterstation

Fehlt Ihre Wetterstation auf unserem Portal?

Schreiben Sie an network@meteonews.ch

Klima

Wann ist es am wärmsten? Wann regnet es am wenigsten? Unsere Klimadaten geben Auskunft.